Airfield :
LOGIN :

Register | Disclaimer

   EN    FR    IT 

 










Legend :    VFR   Marginal VFR   IFR   Intensive IFR   Very Intensive IFR
Visi :
Ceiling :
>= 8 km
>= 3000ft
5 to 8 km
1000 to 3000 ft
1500m to 5 km
500 to 1000 ft
800 to 1500m
200 to 500 ft
< 800m
< 200 ft
Symbols :   Thunderstorms  Fog  Heavy snow  Heavy precipitations  Wind > 20 kt
SIGMETs :     Misc.  Thunderstorms  Icing  Turbulence  Mountain Waves  Volcanic Ashes







- Airport Elevation : 278 ft
- IATA code : RJK


LDRI - Rijeka

CURRENT METAR :
  • 291100Z VRB10KT 9999 FEW050 15/M01 Q1016

EXPIRED METARs :
  • 291030Z 07010KT 010V120 9999 FEW050 15/M00 Q1016
  • 291000Z 06011G23KT 010V120 CAVOK 15/M01 Q1016
  • 290930Z 05011G22KT 010V120 CAVOK 14/M01 Q1016
  • 290900Z 06014KT 010V120 CAVOK 14/M00 Q1016
  • 290830Z 06014G28KT 010V160 9999 FEW050 14/00 Q1016

TAF TAF LDRI
Valid from the 29 at 06:00 until the 30 at 06:00 UTC


290525Z 2906/3006 07015G30KT 9999 SCT035 TX15/2913Z TN07/2903Z
BECMG 2911/2913 06010KT
PROB40
TEMPO 2912/2924 VRB10KT
No reported NOTAMs for that airfield.



MET'MAP, your aeronautical weather chart ! - Copyright ORBIFLY December 2007 - Disclaimer

ORBIFLY MET'MAP TEAM :

Programming & Development : Alexandra Zaïnal
Concept & Development : Baudouin d'Aumeries
Co-Development & Prog : Marc-Olivier Méhu
Technical & hardware support : Manuel Goepfert

Contact : metmap@orbifly.com




SOURCES & CREDITS :

   NOAA